createdAt,value
2022-12-15T00:00:23.679Z,12.27
2022-12-15T00:05:44.231Z,13.10
2022-12-15T00:11:12.839Z,13.77
2022-12-15T00:16:33.429Z,14.25
2022-12-15T00:21:53.747Z,13.32
2022-12-15T00:27:14.084Z,14.38
2022-12-15T00:32:34.380Z,13.35
2022-12-15T00:37:54.720Z,13.27
2022-12-15T00:42:56.738Z,12.45
2022-12-15T00:47:58.581Z,11.43
2022-12-15T00:53:18.997Z,11.07
2022-12-15T00:58:39.456Z,12.93
2022-12-15T01:03:59.832Z,14.52
2022-12-15T01:09:21.387Z,14.30
2022-12-15T01:14:42.204Z,14.43
2022-12-15T01:20:02.345Z,12.43
2022-12-15T01:25:06.323Z,13.18
2022-12-15T01:30:09.716Z,12.68
2022-12-15T01:35:12.071Z,12.88
2022-12-15T01:40:36.193Z,11.27
2022-12-15T01:45:48.922Z,11.25
2022-12-15T01:51:13.925Z,11.98
2022-12-15T01:56:17.924Z,12.68
2022-12-15T02:01:19.950Z,12.27
2022-12-15T02:06:22.653Z,10.85
2022-12-15T02:11:30.366Z,11.40
2022-12-15T02:16:58.307Z,11.35
2022-12-15T02:22:18.294Z,10.60
2022-12-15T02:27:44.423Z,10.77
2022-12-15T02:33:21.712Z,11.00
2022-12-15T02:38:37.182Z,11.77
2022-12-15T02:43:39.713Z,12.20
2022-12-15T02:49:08.040Z,10.30
2022-12-15T02:54:31.733Z,12.20
2022-12-15T02:59:33.406Z,12.48
2022-12-15T03:04:35.463Z,13.07
2022-12-15T03:09:37.303Z,12.70
2022-12-15T03:14:39.278Z,12.15
2022-12-15T03:19:41.293Z,10.63
2022-12-15T03:24:43.557Z,10.05
2022-12-15T03:29:45.561Z,11.50
2022-12-15T03:34:47.590Z,11.73
2022-12-15T03:39:49.768Z,11.05
2022-12-15T03:44:51.625Z,10.50
2022-12-15T03:49:53.333Z,9.55
2022-12-15T03:54:55.132Z,11.00
2022-12-15T03:59:57.106Z,11.30
2022-12-15T04:04:59.162Z,10.82
2022-12-15T04:10:00.998Z,10.70
2022-12-15T04:15:02.882Z,10.75
2022-12-15T04:20:11.831Z,11.02
2022-12-15T04:25:36.046Z,9.80
2022-12-15T04:31:01.162Z,10.32
2022-12-15T04:36:30.775Z,10.18
2022-12-15T04:41:54.727Z,11.00
2022-12-15T04:47:15.237Z,10.23
2022-12-15T04:52:38.449Z,11.13
2022-12-15T04:57:59.006Z,10.07
2022-12-15T05:03:26.634Z,9.45
2022-12-15T05:08:47.208Z,10.40
2022-12-15T05:14:10.909Z,10.32
2022-12-15T05:19:31.119Z,9.43
2022-12-15T05:24:51.996Z,8.98
2022-12-15T05:30:12.455Z,8.90
2022-12-15T05:35:14.556Z,8.80
2022-12-15T05:40:22.363Z,9.32
2022-12-15T05:45:24.328Z,9.32
2022-12-15T05:50:26.336Z,8.07
2022-12-15T05:55:28.333Z,7.82
2022-12-15T06:00:30.364Z,8.70
2022-12-15T06:05:32.264Z,8.48
2022-12-15T06:10:34.068Z,8.70
2022-12-15T06:15:39.164Z,6.80
2022-12-15T06:20:41.058Z,7.50
2022-12-15T06:25:42.898Z,7.72
2022-12-15T06:30:44.723Z,8.85
2022-12-15T06:35:46.569Z,7.80
2022-12-15T06:41:01.902Z,7.70
2022-12-15T06:46:04.586Z,6.95
2022-12-15T06:51:13.324Z,7.38
2022-12-15T06:56:23.204Z,6.25
2022-12-15T07:01:28.279Z,6.40
2022-12-15T07:06:37.706Z,7.68
2022-12-15T07:11:40.725Z,10.10
2022-12-15T07:16:42.746Z,8.00
2022-12-15T07:21:45.175Z,6.63
2022-12-15T07:26:49.081Z,6.28
2022-12-15T07:31:51.140Z,6.10
2022-12-15T07:36:53.216Z,7.00
2022-12-15T07:41:55.045Z,5.80
2022-12-15T07:46:56.997Z,8.60
2022-12-15T07:51:58.982Z,7.60
2022-12-15T07:57:02.766Z,7.00
2022-12-15T08:02:05.205Z,8.32
2022-12-15T08:07:09.183Z,7.82
2022-12-15T08:12:10.940Z,6.90
2022-12-15T08:17:13.309Z,6.95
2022-12-15T08:22:15.748Z,6.80
2022-12-15T08:27:17.620Z,6.75
2022-12-15T08:32:19.562Z,6.93
2022-12-15T08:37:21.449Z,7.30
2022-12-15T08:42:48.439Z,6.00
2022-12-15T08:47:50.264Z,5.90
2022-12-15T08:53:21.510Z,6.20
2022-12-15T08:58:14.548Z,7.60
2022-12-15T09:03:16.437Z,7.40
2022-12-15T09:08:18.602Z,5.93
2022-12-15T09:13:21.016Z,7.38
2022-12-15T09:18:22.936Z,6.95
2022-12-15T09:23:25.095Z,6.15
2022-12-15T09:28:28.190Z,6.28
2022-12-15T09:33:30.593Z,5.82
2022-12-15T09:38:40.553Z,5.78
2022-12-15T09:44:05.428Z,5.78
2022-12-15T09:49:27.885Z,4.55
2022-12-15T09:54:34.081Z,6.60
2022-12-15T09:59:44.563Z,6.10
2022-12-15T10:04:55.793Z,4.65
2022-12-15T10:09:58.248Z,5.57
2022-12-15T10:15:23.186Z,6.00
2022-12-15T10:20:32.335Z,5.72
2022-12-15T10:25:34.214Z,4.85
2022-12-15T10:30:42.778Z,5.20
2022-12-15T10:35:44.861Z,5.25
2022-12-15T10:40:58.465Z,4.95
2022-12-15T10:46:19.020Z,4.57
2022-12-15T10:51:37.277Z,5.38
2022-12-15T10:56:57.456Z,3.83
2022-12-15T11:02:24.474Z,4.65
2022-12-15T11:07:39.206Z,3.90
2022-12-15T11:12:58.335Z,6.15
2022-12-15T11:18:22.159Z,6.22
2022-12-15T11:23:50.340Z,6.57
2022-12-15T11:39:16.419Z,7.38
2022-12-15T11:44:28.078Z,7.28
2022-12-15T11:50:01.838Z,6.65
2022-12-15T11:55:29.548Z,6.80
2022-12-15T12:00:42.603Z,5.00
2022-12-15T12:05:59.700Z,5.93
2022-12-15T12:11:29.134Z,8.30
2022-12-15T12:16:49.250Z,7.80
2022-12-15T12:21:59.178Z,7.25
2022-12-15T12:27:09.018Z,6.95
2022-12-15T12:32:40.609Z,6.88
2022-12-15T12:37:51.551Z,5.93
2022-12-15T12:42:54.888Z,6.88
2022-12-15T12:48:03.360Z,8.50
2022-12-15T12:53:05.375Z,8.68
2022-12-15T12:58:34.324Z,7.90
2022-12-15T13:03:39.127Z,9.02
2022-12-15T13:08:52.864Z,7.10
2022-12-15T13:13:56.109Z,7.45
2022-12-15T13:19:04.795Z,6.90
2022-12-15T13:24:30.858Z,8.07
2022-12-15T13:29:34.253Z,7.00
2022-12-15T13:34:40.880Z,7.03
2022-12-15T13:39:55.629Z,7.15
2022-12-15T13:45:13.834Z,7.03
2022-12-15T13:50:29.983Z,7.70
2022-12-15T13:55:37.322Z,8.85
2022-12-15T14:00:48.603Z,7.30
2022-12-15T14:05:55.552Z,7.03
2022-12-15T14:11:22.537Z,7.03
2022-12-15T14:16:27.485Z,6.90
2022-12-15T14:21:30.494Z,8.13
2022-12-15T14:26:35.396Z,7.57
2022-12-15T14:31:42.853Z,9.30
2022-12-15T14:36:46.242Z,8.98
2022-12-15T14:41:54.630Z,12.10
2022-12-15T14:46:57.180Z,9.82
2022-12-15T14:52:03.228Z,9.40
2022-12-15T14:57:15.880Z,10.32
2022-12-15T15:02:23.087Z,8.98
2022-12-15T15:07:26.834Z,9.70
2022-12-15T15:12:44.963Z,9.52
2022-12-15T15:17:51.174Z,8.88
2022-12-15T15:23:08.825Z,9.77
2022-12-15T15:28:21.879Z,9.60
2022-12-15T15:33:25.336Z,9.73
2022-12-15T15:38:36.207Z,9.90
2022-12-15T15:43:38.424Z,10.65
2022-12-15T15:48:50.429Z,12.10
2022-12-15T15:53:58.128Z,12.55
2022-12-15T15:59:09.963Z,11.70
2022-12-15T16:04:14.905Z,13.13
2022-12-15T16:09:17.306Z,12.82
2022-12-15T16:14:19.247Z,16.08
2022-12-15T16:19:21.263Z,16.83
2022-12-15T16:24:23.134Z,16.17
2022-12-15T16:29:33.976Z,18.40
2022-12-15T16:34:36.635Z,16.13
2022-12-15T16:39:49.399Z,14.57
2022-12-15T16:44:51.394Z,15.88
2022-12-15T16:49:53.347Z,16.10
2022-12-15T16:54:57.147Z,15.60
2022-12-15T16:59:59.045Z,14.60
2022-12-15T17:05:00.801Z,13.90
2022-12-15T17:10:03.583Z,13.02
2022-12-15T17:15:16.878Z,13.73
2022-12-15T17:20:30.508Z,13.48
2022-12-15T17:31:06.736Z,15.07
2022-12-15T17:36:17.667Z,13.50
2022-12-15T17:47:58.146Z,8.55
2022-12-15T17:53:03.364Z,10.15
2022-12-15T17:58:35.735Z,9.73
2022-12-15T18:03:40.810Z,7.07
2022-12-15T18:08:45.764Z,7.85
2022-12-15T18:13:52.408Z,7.78
2022-12-15T18:18:56.737Z,7.63
2022-12-15T18:24:00.377Z,8.82
2022-12-15T18:29:15.316Z,9.15
2022-12-15T18:34:22.939Z,9.13
2022-12-15T18:39:27.190Z,7.03
2022-12-15T18:44:32.222Z,8.23
2022-12-15T18:49:37.484Z,10.10
2022-12-15T18:54:45.619Z,9.80
2022-12-15T18:59:47.444Z,9.00
2022-12-15T19:04:49.495Z,8.98
2022-12-15T19:09:51.534Z,11.45
2022-12-15T19:14:55.165Z,10.00
2022-12-15T19:20:17.564Z,9.75
2022-12-15T19:25:25.834Z,8.93
2022-12-15T19:30:30.585Z,10.18
2022-12-15T19:35:33.913Z,10.60
2022-12-15T19:40:37.795Z,10.65
2022-12-15T19:45:39.622Z,12.43
2022-12-15T19:50:42.616Z,13.60
2022-12-15T19:55:44.596Z,13.57
2022-12-15T20:00:46.497Z,11.18
2022-12-15T20:05:50.978Z,11.35
2022-12-15T20:10:54.070Z,12.73
2022-12-15T20:15:56.291Z,10.95
2022-12-15T20:20:59.464Z,12.15
2022-12-15T20:26:01.375Z,14.18
2022-12-15T20:31:03.647Z,10.60
2022-12-15T20:36:13.311Z,12.13
2022-12-15T20:41:25.134Z,14.20
2022-12-15T20:46:36.071Z,12.98
2022-12-15T20:51:38.224Z,14.50
2022-12-15T20:56:40.128Z,16.92
2022-12-15T21:01:43.325Z,16.85
2022-12-15T21:06:47.606Z,16.90
2022-12-15T21:11:55.187Z,17.95
2022-12-15T21:16:58.149Z,20.63
2022-12-15T21:22:01.066Z,18.48
2022-12-15T21:27:04.209Z,19.58
2022-12-15T21:32:06.138Z,18.70
2022-12-15T21:37:25.717Z,19.38
2022-12-15T21:42:27.813Z,17.90
2022-12-15T21:47:52.080Z,19.52
2022-12-15T21:52:54.543Z,16.58
2022-12-15T21:57:57.471Z,18.23
2022-12-15T22:02:59.316Z,17.27
2022-12-15T22:08:13.088Z,17.15
2022-12-15T22:13:20.660Z,17.38
2022-12-15T22:23:25.467Z,18.23
2022-12-15T22:28:28.708Z,19.63
2022-12-15T22:33:31.764Z,19.02
2022-12-15T22:38:34.954Z,18.08
2022-12-15T22:43:41.637Z,20.15
2022-12-15T22:48:47.437Z,18.88
2022-12-15T22:53:49.288Z,20.10
2022-12-15T22:59:08.569Z,20.45
2022-12-15T23:04:10.604Z,18.13
2022-12-15T23:09:12.474Z,20.20
2022-12-15T23:14:16.842Z,19.48
2022-12-15T23:19:24.375Z,19.67
2022-12-15T23:29:29.536Z,21.30
2022-12-15T23:34:31.713Z,21.05
2022-12-15T23:39:34.878Z,21.98
2022-12-15T23:44:37.749Z,23.10
2022-12-15T23:49:39.984Z,22.60
2022-12-15T23:54:43.363Z,24.95
2022-12-15T23:59:45.088Z,20.48
